Time;durP1;ratioP1;P1;durP2;ratioP2;P2;SDS_P1;SDS_P2;PMS_P1;PMS_P2;Temp;Humidity;BMP_temperature;BMP_pressure;BME280_temperature;BME280_humidity;BME280_pressure;Samples;Min_cycle;Max_cycle;Signal;HPM_P1;HPM_P2
2022/04/19 04:43:39;;;;;;;9.73;6.82;;;;;;;8.77;54.64;100065.38;5604563;31;77536;-54
2022/04/19 04:50:03;;;;;;;9.95;6.82;;;;;;;8.34;54.77;100070.34;5603232;31;33669;-54
2022/04/19 04:53:06;;;;;;;11.35;6.85;;;;;;;8.34;55.53;100070.34;5602221;31;33108;-54
2022/04/19 04:56:09;;;;;;;11.52;6.53;;;;;;;8.28;55.13;100067.97;5601020;31;33517;-54
2022/04/19 04:59:11;;;;;;;12.43;7.05;;;;;;;8.26;55.79;100078.13;5583425;31;32415;-55
2022/04/19 05:02:14;;;;;;;12.65;8.50;;;;;;;8.24;55.77;100076.53;5583416;32;33213;-54
2022/04/19 05:05:17;;;;;;;12.30;8.45;;;;;;;8.33;53.81;100066.09;5583565;31;34387;-54
2022/04/19 05:08:19;;;;;;;12.48;8.43;;;;;;;8.45;53.09;100069.28;5583574;32;33555;-55
2022/04/19 05:11:21;;;;;;;10.32;7.93;;;;;;;8.54;54.81;100069.50;5583272;32;33283;-54
2022/04/19 05:14:24;;;;;;;9.73;7.28;;;;;;;8.58;54.56;100073.25;5583426;31;33398;-53
2022/04/19 05:17:27;;;;;;;10.20;7.35;;;;;;;8.55;55.13;100065.78;5583450;31;34203;-54
2022/04/19 05:20:29;;;;;;;12.90;6.93;;;;;;;8.52;55.01;100069.00;5583394;31;33143;-54
2022/04/19 05:23:32;;;;;;;13.13;7.22;;;;;;;8.56;54.07;100074.59;5583452;31;33742;-54
2022/04/19 05:26:35;;;;;;;12.68;7.30;;;;;;;8.66;53.53;100069.97;5580945;31;34204;-54
2022/04/19 05:29:37;;;;;;;8.30;6.07;;;;;;;8.79;53.40;100070.47;5563150;32;34376;-54
2022/04/19 05:32:40;;;;;;;8.68;6.55;;;;;;;8.91;51.92;100073.63;5563610;32;34270;-55
2022/04/19 05:35:42;;;;;;;7.47;6.20;;;;;;;8.88;51.93;100071.50;5563596;32;34296;-54
2022/04/19 05:38:45;;;;;;;12.05;6.43;;;;;;;8.72;51.52;100072.66;5563660;32;33704;-55
2022/04/19 05:41:47;;;;;;;7.87;6.25;;;;;;;8.66;52.86;100069.97;5563404;32;33186;-55
2022/04/19 05:44:50;;;;;;;11.40;6.82;;;;;;;8.90;51.78;100063.97;5563516;32;34403;-55
2022/04/19 05:47:54;;;;;;;8.25;6.07;;;;;;;9.14;52.65;100066.78;5563323;32;33321;-54
2022/04/19 05:50:56;;;;;;;8.48;5.82;;;;;;;9.18;51.72;100075.84;5563288;32;33401;-55
2022/04/19 05:54:00;;;;;;;9.68;5.28;;;;;;;9.25;51.08;100065.62;5554653;32;34350;-55
2022/04/19 05:57:02;;;;;;;8.20;5.45;;;;;;;9.41;51.19;100074.34;5550384;32;34501;-54
2022/04/19 06:00:05;;;;;;;8.07;5.30;;;;;;;9.64;50.95;100073.63;5548411;32;33795;-55
2022/04/19 06:06:39;;;;;;;9.25;5.47;;;;;;;9.83;49.16;100073.72;5550295;32;33653;-54
2022/04/19 06:09:41;;;;;;;7.80;5.00;;;;;;;10.12;50.56;100072.88;5550075;32;34170;-54
2022/04/19 06:12:44;;;;;;;6.53;4.40;;;;;;;10.14;47.76;100072.62;5550322;32;34429;-54
2022/04/19 06:15:46;;;;;;;6.68;4.53;;;;;;;10.11;47.79;100071.28;5550103;32;32589;-54
2022/04/19 06:18:49;;;;;;;5.97;4.55;;;;;;;10.27;47.50;100072.75;5550163;32;33547;-54
2022/04/19 06:21:51;;;;;;;10.60;4.28;;;;;;;10.06;47.28;100071.34;5554438;32;33545;-55
2022/04/19 06:24:55;;;;;;;8.55;4.22;;;;;;;10.02;46.86;100075.66;5569603;32;34063;-54
2022/04/19 06:27:57;;;;;;;6.43;4.53;;;;;;;9.92;47.72;100071.22;5569504;32;33958;-55
2022/04/19 06:31:01;;;;;;;8.00;4.40;;;;;;;10.10;49.58;100067.03;5567844;32;33264;-55
2022/04/19 06:34:04;;;;;;;7.37;3.97;;;;;;;10.25;46.19;100072.19;5569594;31;33734;-55
2022/04/19 06:37:07;;;;;;;5.95;4.07;;;;;;;10.54;45.34;100068.69;5569499;32;32975;-55
2022/04/19 06:40:10;;;;;;;5.72;4.50;;;;;;;10.36;46.53;100064.88;5569414;31;34355;-55
2022/04/19 06:43:13;;;;;;;6.85;4.50;;;;;;;10.61;45.64;100071.81;5569258;31;33448;-55
2022/04/19 06:46:19;;;;;;;7.18;4.20;;;;;;;10.68;46.82;100069.56;5569466;31;33567;-55
2022/04/19 06:49:22;;;;;;;5.75;4.50;;;;;;;10.86;46.94;100059.12;5569332;31;34326;-55
2022/04/19 06:52:24;;;;;;;9.02;4.50;;;;;;;10.78;46.17;100071.31;5569477;31;33390;-54
2022/04/19 06:55:27;;;;;;;5.70;4.25;;;;;;;10.93;44.79;100073.00;5569457;31;33194;-54
2022/04/19 06:58:30;;;;;;;6.95;4.28;;;;;;;10.95;44.90;100073.50;5569358;31;33361;-54
2022/04/19 07:01:32;;;;;;;7.05;4.18;;;;;;;10.69;45.59;100065.00;5566995;32;34298;-55
2022/04/19 07:04:37;;;;;;;6.68;4.37;;;;;;;10.73;44.78;100063.34;5548742;32;33354;-55
2022/04/19 07:07:42;;;;;;;6.68;4.72;;;;;;;10.93;44.53;100064.97;5549731;32;34200;-55
2022/04/19 07:10:44;;;;;;;7.43;4.62;;;;;;;11.10;44.74;100062.56;5549907;32;34369;-54
2022/04/19 07:13:47;;;;;;;7.45;4.55;;;;;;;11.10;42.62;100059.09;5549668;32;33121;-54
2022/04/19 07:16:52;;;;;;;6.53;4.47;;;;;;;11.13;45.63;100069.25;5549734;32;34236;-55
2022/04/19 07:26:47;;;;;;;6.40;4.72;;;;;;;10.81;44.94;100063.50;5549556;32;33443;-54
2022/04/19 07:29:50;;;;;;;7.62;5.05;;;;;;;11.00;44.29;100060.81;5549551;32;33455;-55
2022/04/19 07:32:52;;;;;;;8.10;4.68;;;;;;;11.09;43.18;100063.63;5547959;32;34215;-55
2022/04/19 07:35:54;;;;;;;7.45;4.35;;;;;;;11.28;44.51;100063.63;5549497;32;34360;-54
2022/04/19 07:38:58;;;;;;;6.90;4.55;;;;;;;11.33;43.00;100060.87;5549499;32;34361;-55
2022/04/19 07:42:00;;;;;;;7.35;4.30;;;;;;;11.33;44.59;100060.06;5549353;32;34312;-54
2022/04/19 07:45:04;;;;;;;7.47;4.93;;;;;;;11.19;42.15;100054.63;5549438;32;34788;-54
2022/04/19 07:48:06;;;;;;;8.90;4.82;;;;;;;11.21;44.39;100058.63;5549557;32;33442;-55
2022/04/19 07:51:10;;;;;;;7.93;4.90;;;;;;;11.17;45.34;100054.94;5549517;32;33228;-55
2022/04/19 07:54:12;;;;;;;10.10;4.90;;;;;;;11.14;44.24;100052.84;5549262;32;33554;-54
2022/04/19 07:57:18;;;;;;;6.65;4.90;;;;;;;11.15;44.64;100056.31;5549512;32;34427;-55
2022/04/19 08:00:21;;;;;;;7.20;4.95;;;;;;;11.09;45.62;100058.25;5549519;32;33553;-55
2022/04/19 08:03:23;;;;;;;8.65;4.57;;;;;;;11.29;44.71;100057.97;5547378;32;33312;-55
2022/04/19 08:06:27;;;;;;;7.18;4.35;;;;;;;11.25;43.44;100056.16;5549343;32;33424;-55
2022/04/19 08:09:29;;;;;;;9.25;5.50;;;;;;;11.52;46.09;100058.94;5549332;32;33591;-54
2022/04/19 08:12:32;;;;;;;8.65;5.75;;;;;;;11.73;43.96;100056.72;5549174;32;33512;-54
2022/04/19 08:15:35;;;;;;;6.72;5.03;;;;;;;11.41;43.14;100059.41;5548897;32;33566;-54
2022/04/19 08:18:41;;;;;;;7.25;5.30;;;;;;;11.47;44.20;100063.59;5549205;32;33329;-55
2022/04/19 08:21:44;;;;;;;9.27;5.30;;;;;;;11.67;43.02;100060.56;5549085;32;34451;-55
2022/04/19 08:24:47;;;;;;;7.12;5.18;;;;;;;11.88;43.58;100073.66;5549015;32;33769;-55
2022/04/19 08:27:51;;;;;;;6.85;5.18;;;;;;;11.79;42.77;100061.97;5548993;32;33601;-55
2022/04/19 08:30:53;;;;;;;6.62;5.40;;;;;;;11.61;42.88;100055.56;5548823;32;33203;-55
2022/04/19 08:33:56;;;;;;;7.25;4.70;;;;;;;11.80;41.89;100050.94;5547081;32;34980;-54
2022/04/19 08:36:59;;;;;;;7.60;4.97;;;;;;;11.50;42.22;100047.69;5548975;32;33258;-54
2022/04/19 08:40:03;;;;;;;8.80;5.57;;;;;;;11.68;44.07;100056.00;5548938;32;33726;-55
2022/04/19 08:43:06;;;;;;;7.28;4.95;;;;;;;11.75;44.46;100048.34;5548445;32;33160;-54
2022/04/19 08:46:08;;;;;;;6.93;5.15;;;;;;;11.82;42.31;100046.09;5548560;32;33602;-55
2022/04/19 08:49:11;;;;;;;6.72;5.22;;;;;;;11.85;44.05;100042.03;5548797;32;33716;-55
2022/04/19 08:52:14;;;;;;;8.90;5.43;;;;;;;12.02;43.10;100046.81;5548567;32;33711;-54
2022/04/19 08:58:38;;;;;;;5.53;4.60;;;;;;;12.06;40.79;100032.50;5548238;32;33656;-55
2022/04/19 09:01:41;;;;;;;7.32;5.68;;;;;;;12.18;41.16;100038.16;5548507;32;34322;-54
2022/04/19 09:04:43;;;;;;;5.47;4.82;;;;;;;12.24;42.10;100028.13;5546540;32;33569;-54
2022/04/19 09:07:47;;;;;;;6.15;5.05;;;;;;;12.31;43.25;100030.41;5548193;32;33685;-55
2022/04/19 09:11:04;;;;;;;8.80;5.50;;;;;;;12.38;42.85;100022.72;5548144;32;33171;-54
2022/04/19 09:14:06;;;;;;;8.25;6.18;;;;;;;12.52;40.94;100028.09;5546719;32;33902;-55
2022/04/19 09:17:09;;;;;;;6.50;5.20;;;;;;;12.29;40.65;100019.16;5546699;32;34396;-55
2022/04/19 09:20:15;;;;;;;7.32;5.62;;;;;;;12.22;41.88;100024.94;5547910;32;34455;-55
2022/04/19 09:23:18;;;;;;;7.18;5.37;;;;;;;12.20;40.12;100022.53;5547327;32;33550;-55
2022/04/19 09:26:20;;;;;;;7.43;5.47;;;;;;;12.23;39.74;100019.25;5547914;32;33576;-55
2022/04/19 09:29:24;;;;;;;8.40;5.40;;;;;;;12.29;39.94;100011.09;5549766;32;33122;-55
2022/04/19 09:32:26;;;;;;;5.70;5.10;;;;;;;12.25;39.65;100018.16;5549672;32;33748;-55
2022/04/19 09:35:33;;;;;;;8.55;5.70;;;;;;;12.45;38.28;100007.00;5551514;32;33631;-54
2022/04/19 09:38:37;;;;;;;6.68;5.32;;;;;;;12.49;39.30;100004.50;5569582;32;33585;-55
2022/04/19 09:41:40;;;;;;;7.75;5.50;;;;;;;12.47;42.59;99999.41;5558822;32;34325;-55
2022/04/19 09:44:49;;;;;;;10.70;5.80;;;;;;;12.51;39.82;100002.28;5549429;32;33708;-55
2022/04/19 09:47:52;;;;;;;7.37;5.72;;;;;;;12.50;39.11;100004.19;5569812;32;33590;-55
2022/04/19 09:51:04;;;;;;;7.05;5.25;;;;;;;12.52;38.26;100010.06;5569886;32;34356;-55
2022/04/19 09:54:21;;;;;;;6.57;5.43;;;;;;;12.58;39.53;100011.56;5569932;32;33327;-55
2022/04/19 09:57:23;;;;;;;5.80;5.20;;;;;;;12.65;37.64;100000.37;5570038;32;33697;-55
2022/04/19 10:00:27;;;;;;;6.85;5.22;;;;;;;12.51;37.43;100003.09;5569940;32;33734;-55
2022/04/19 10:10:06;;;;;;;7.68;5.82;;;;;;;12.66;38.25;99991.22;5569707;32;33776;-55
2022/04/19 10:13:08;;;;;;;7.32;6.05;;;;;;;12.84;39.65;100000.22;5569813;32;33766;-55
2022/04/19 10:16:12;;;;;;;7.70;5.87;;;;;;;12.84;39.66;99986.75;5569710;32;33757;-54
2022/04/19 10:19:16;;;;;;;8.32;5.28;;;;;;;12.94;40.08;99981.94;5569839;32;34470;-55
2022/04/19 10:22:19;;;;;;;7.20;5.78;;;;;;;13.11;40.78;99991.22;5569582;32;33777;-54
2022/04/19 10:25:22;;;;;;;8.40;5.80;;;;;;;13.03;39.26;99982.00;5569704;32;33736;-55
2022/04/19 10:28:27;;;;;;;7.10;5.18;;;;;;;13.07;37.26;99984.88;5569583;32;33735;-55
2022/04/19 10:31:31;;;;;;;9.02;5.32;;;;;;;12.80;36.07;99978.50;5569695;32;33687;-55
2022/04/19 10:34:36;;;;;;;7.75;5.35;;;;;;;12.84;36.86;99974.09;5567776;32;33296;-54
2022/04/19 10:37:38;;;;;;;7.78;5.55;;;;;;;12.86;36.90;99976.50;5569513;32;33571;-54
2022/04/19 10:40:51;;;;;;;7.90;5.90;;;;;;;12.86;36.26;99971.91;5568356;32;34240;-55
2022/04/19 10:44:26;;;;;;;7.15;5.60;;;;;;;12.87;37.56;99976.19;5569192;32;34456;-55
2022/04/19 10:47:29;;;;;;;6.80;5.68;;;;;;;13.03;38.70;99965.84;5569601;32;34382;-54
2022/04/19 10:50:39;;;;;;;8.23;5.25;;;;;;;12.84;38.58;99967.94;5569600;32;33793;-55
2022/04/19 10:53:43;;;;;;;7.40;5.37;;;;;;;12.81;39.34;99971.22;5569365;32;33703;-55
2022/04/19 11:00:43;;;;;;;6.95;5.37;;;;;;;12.91;38.80;99962.91;5549783;31;34463;-54
2022/04/19 11:04:05;;;;;;;8.00;5.90;;;;;;;12.82;39.50;99973.62;5567487;32;34265;-55
2022/04/19 11:07:40;;;;;;;6.70;5.75;;;;;;;12.71;38.41;99961.50;5569436;32;33747;-54
2022/04/19 11:10:42;;;;;;;6.40;5.25;;;;;;;12.60;39.67;99973.59;5569127;32;33945;-55
2022/04/19 11:14:23;;;;;;;7.55;5.80;;;;;;;12.51;40.37;99970.81;5569300;32;33936;-54
2022/04/19 11:17:28;;;;;;;8.00;5.57;;;;;;;12.55;40.40;99973.69;5569333;32;33249;-54
2022/04/19 11:20:45;;;;;;;9.65;5.57;;;;;;;12.55;41.39;99966.44;5569383;32;34586;-55
2022/04/19 11:23:50;;;;;;;8.77;5.43;;;;;;;12.56;41.30;99973.41;5569025;32;34447;-55
2022/04/19 11:26:52;;;;;;;6.82;6.10;;;;;;;12.61;40.09;99984.03;5569077;32;33631;-54
2022/04/19 11:29:54;;;;;;;6.05;5.18;;;;;;;12.48;40.73;99979.50;5569072;32;33623;-55
2022/04/19 11:32:58;;;;;;;7.95;5.80;;;;;;;12.46;41.61;99987.88;5569376;32;34431;-55
2022/04/19 11:36:06;;;;;;;8.30;5.68;;;;;;;12.40;40.96;99977.53;5567381;32;34375;-54
2022/04/19 11:46:43;;;;;;;8.07;5.97;;;;;;;12.48;40.45;99989.44;5569161;32;33686;-55
2022/04/19 11:49:35;;;;;;;6.57;5.55;;;;;;;12.35;43.96;99993.75;5569155;32;33753;-54
2022/04/19 11:52:38;;;;;;;12.37;9.68;;;;;;;12.44;42.09;99998.12;5568303;32;33368;-54
2022/04/19 11:55:51;;;;;;;9.85;7.18;;;;;;;12.36;41.82;99990.78;5568943;32;33708;-55
2022/04/19 11:58:59;;;;;;;7.77;5.57;;;;;;;12.38;41.94;100001.22;5568990;32;34427;-55
2022/04/19 12:02:03;;;;;;;8.87;6.40;;;;;;;12.35;41.89;99993.75;5568925;32;33768;-54
2022/04/19 12:05:06;;;;;;;7.70;5.78;;;;;;;12.30;42.55;100000.03;5567061;32;34390;-55
2022/04/19 12:08:08;;;;;;;8.02;6.10;;;;;;;12.39;40.78;99998.25;5568817;32;33644;-55
2022/04/19 12:11:16;;;;;;;7.43;6.12;;;;;;;12.42;41.77;100002.22;5568698;32;34069;-54
2022/04/19 12:14:28;;;;;;;9.55;6.72;;;;;;;12.22;41.38;100001.56;5568755;32;33968;-54
2022/04/19 12:17:31;;;;;;;7.35;6.30;;;;;;;11.95;42.33;100013.09;5567468;32;34362;-54
2022/04/19 12:20:43;;;;;;;7.93;6.40;;;;;;;11.70;43.35;100008.16;5568639;32;33639;-56
2022/04/19 12:23:51;;;;;;;10.70;6.60;;;;;;;11.71;44.63;100005.16;5568430;32;33780;-54
2022/04/19 12:27:07;;;;;;;9.10;7.43;;;;;;;11.86;44.17;100022.16;5568338;32;34396;-54
2022/04/19 12:30:11;;;;;;;;;;;;;;;11.23;46.52;100005.47;5568693;32;33622;-54
2022/04/19 12:33:13;;;;;;;9.90;7.55;;;;;;;10.55;49.52;100012.09;5568336;32;33911;-54
2022/04/19 12:36:22;;;;;;;8.52;7.30;;;;;;;10.40;50.81;100024.91;5566742;32;33628;-54
2022/04/19 12:39:25;;;;;;;7.90;6.85;;;;;;;10.21;52.40;100028.31;5568495;32;34278;-55
2022/04/19 12:42:28;;;;;;;10.43;8.10;;;;;;;10.19;53.63;100030.47;5568022;32;33632;-55
2022/04/19 12:45:31;;;;;;;9.00;7.47;;;;;;;10.10;53.36;100027.66;5568385;32;34305;-54
2022/04/19 12:48:36;;;;;;;9.27;7.25;;;;;;;9.93;53.34;100034.50;5568241;32;33818;-54
2022/04/19 12:51:39;;;;;;;8.50;7.40;;;;;;;9.95;53.74;100037.72;5568248;32;33948;-55
2022/04/19 12:54:43;;;;;;;10.07;7.50;;;;;;;10.07;54.43;100038.13;5568163;32;33610;-55
2022/04/19 12:58:06;;;;;;;11.18;8.23;;;;;;;10.24;54.13;100037.66;5568015;32;33622;-54
2022/04/19 13:01:08;;;;;;;9.82;7.68;;;;;;;10.24;54.29;100035.00;5568104;32;33948;-54
2022/04/19 13:04:10;;;;;;;11.70;8.48;;;;;;;10.18;55.76;100041.50;5569270;32;33679;-54
2022/04/19 13:13:55;;;;;;;12.75;9.65;;;;;;;10.10;63.88;100033.00;5570346;32;33964;-54
2022/04/19 13:16:57;;;;;;;10.48;9.40;;;;;;;9.91;64.02;100031.34;5570239;32;34253;-54
2022/04/19 13:20:00;;;;;;;10.32;8.93;;;;;;;9.67;65.77;100032.12;5570195;32;34451;-55
2022/04/19 13:23:02;;;;;;;9.95;8.77;;;;;;;9.38;66.02;100043.59;5570224;32;33724;-54
2022/04/19 13:26:04;;;;;;;9.88;8.77;;;;;;;9.71;65.10;100037.69;5570120;32;33914;-54
2022/04/19 13:29:07;;;;;;;12.52;9.45;;;;;;;9.87;64.04;100031.13;5570245;31;33858;-54
2022/04/19 13:32:10;;;;;;;10.85;8.55;;;;;;;9.64;62.13;100033.47;5570157;32;33249;-53
2022/04/19 13:35:12;;;;;;;12.27;9.38;;;;;;;9.50;61.61;100029.84;5570109;32;34376;-55
2022/04/19 13:38:24;;;;;;;10.35;8.52;;;;;;;9.61;64.21;100034.03;5568297;32;33790;-54
2022/04/19 13:41:26;;;;;;;11.93;9.25;;;;;;;9.80;60.34;100030.63;5570041;32;33701;-54
2022/04/19 13:44:28;;;;;;;11.75;9.32;;;;;;;9.81;60.80;100043.75;5568900;32;34313;-55
2022/04/19 13:47:31;;;;;;;11.07;9.88;;;;;;;9.87;66.83;100044.50;5570052;32;34466;-54
2022/04/19 13:50:33;;;;;;;10.45;9.25;;;;;;;9.96;67.72;100039.31;5570069;32;33660;-55
2022/04/19 13:53:36;;;;;;;11.75;9.95;;;;;;;10.31;61.87;100044.28;5570010;32;34286;-54
2022/04/19 13:56:39;;;;;;;13.13;10.57;;;;;;;10.36;64.91;100048.78;5570068;32;33291;-54
2022/04/19 13:59:47;;;;;;;12.80;9.70;;;;;;;10.55;65.45;100051.50;5569974;32;33699;-55
2022/04/19 14:02:50;;;;;;;12.82;9.82;;;;;;;10.66;67.29;100063.72;5569921;32;34421;-54
2022/04/19 14:05:53;;;;;;;10.70;9.65;;;;;;;10.54;66.80;100069.47;5569810;32;33618;-54
2022/04/19 14:08:55;;;;;;;13.13;11.12;;;;;;;10.30;68.63;100066.03;5568185;32;33895;-54
2022/04/19 14:12:04;;;;;;;14.90;12.43;;;;;;;10.18;70.50;100066.38;5569711;32;34399;-55
2022/04/19 14:15:07;;;;;;;;;;;;;;;10.21;70.72;100057.78;5569856;32;33265;-55
2022/04/19 14:18:09;;;;;;;16.30;14.25;;;;;;;10.23;69.93;100052.12;5569685;32;33887;-54
2022/04/19 14:21:11;;;;;;;9.57;8.57;;;;;;;10.25;72.44;100049.97;5569675;32;34292;-55
2022/04/19 14:24:14;;;;;;;11.18;9.65;;;;;;;10.64;65.05;100052.47;5569439;32;33822;-55
2022/04/19 14:27:16;;;;;;;9.15;8.20;;;;;;;10.73;66.30;100049.94;5569736;31;34371;-55
2022/04/19 14:33:42;;;;;;;8.52;7.68;;;;;;;10.72;63.17;100048.34;5569429;32;34275;-55
2022/04/19 14:36:45;;;;;;;10.43;9.20;;;;;;;10.59;58.73;100049.84;5569537;32;34391;-55
2022/04/19 14:39:47;;;;;;;10.70;9.32;;;;;;;10.60;61.70;100050.66;5567442;32;33740;-55
2022/04/19 14:42:49;;;;;;;10.55;8.45;;;;;;;10.71;63.54;100047.53;5569307;32;34372;-55
2022/04/19 14:45:51;;;;;;;9.95;8.10;;;;;;;10.94;60.80;100053.13;5569504;32;33627;-56
2022/04/19 14:48:54;;;;;;;8.05;7.18;;;;;;;10.99;58.44;100043.16;5569551;32;34403;-54
